Time;durP1;ratioP1;P1;durP2;ratioP2;P2;SDS_P1;SDS_P2;PMS_P1;PMS_P2;Temp;Humidity;BMP_temperature;BMP_pressure;BME280_temperature;BME280_humidity;BME280_pressure;Samples;Min_cycle;Max_cycle;Signal;HPM_P1;HPM_P2
2021/03/05 00:02:09;;;;;;;41.43;25.00;;;7.70;99.20;;;;;;5096599;28;20173;-67
2021/03/05 00:04:35;;;;;;;37.37;22.40;;;7.80;99.00;;;;;;5096313;28;20553;-68
2021/03/05 00:07:00;;;;;;;35.50;21.77;;;7.80;99.10;;;;;;5096558;28;20172;-68
2021/03/05 00:09:26;;;;;;;32.90;20.63;;;7.90;98.80;;;;;;5096360;28;20219;-68
2021/03/05 00:11:51;;;;;;;34.93;21.87;;;8.00;98.70;;;;;;5095942;28;20190;-67
2021/03/05 00:14:17;;;;;;;37.53;23.67;;;8.10;98.60;;;;;;5096297;28;20227;-68
2021/03/05 00:16:43;;;;;;;36.67;23.37;;;8.10;98.80;;;;;;5096140;28;20208;-68
2021/03/05 00:19:08;;;;;;;39.90;24.30;;;8.20;98.30;;;;;;5096062;28;20231;-68
2021/03/05 00:21:34;;;;;;;34.03;22.43;;;8.20;98.10;;;;;;5096019;28;20180;-68
2021/03/05 00:24:00;;;;;;;34.47;23.70;;;8.30;98.20;;;;;;5095985;28;20240;-67
2021/03/05 00:26:25;;;;;;;35.90;22.37;;;8.30;98.00;;;;;;5095910;28;20169;-68
2021/03/05 00:28:51;;;;;;;32.30;21.67;;;8.30;98.30;;;;;;5095894;28;20211;-68
2021/03/05 00:31:16;;;;;;;35.83;22.57;;;8.30;98.10;;;;;;5095945;28;20204;-69
2021/03/05 00:33:42;;;;;;;37.50;24.13;;;8.20;98.20;;;;;;5094761;28;20196;-67
2021/03/05 00:36:08;;;;;;;44.97;25.33;;;8.20;98.20;;;;;;5095903;28;20218;-69
2021/03/05 00:38:33;;;;;;;35.90;24.43;;;8.20;98.30;;;;;;5095583;28;20680;-68
2021/03/05 00:40:59;;;;;;;36.57;23.97;;;8.20;98.10;;;;;;5095798;28;20319;-69
2021/03/05 00:43:25;;;;;;;37.10;24.30;;;8.20;98.10;;;;;;5095883;28;20232;-67
2021/03/05 00:45:51;;;;;;;37.83;24.77;;;8.20;98.10;;;;;;5095613;28;20168;-68
2021/03/05 00:48:17;;;;;;;38.60;26.02;;;8.20;98.10;;;;;;5094520;28;20207;-68
2021/03/05 00:50:43;;;;;;;37.33;25.70;;;8.20;98.10;;;;;;5095459;28;20566;-68
2021/03/05 00:53:09;;;;;;;33.53;24.57;;;8.10;98.20;;;;;;5095743;28;20203;-68
2021/03/05 00:55:35;;;;;;;37.63;24.63;;;8.20;98.00;;;;;;5095306;28;20192;-68
2021/03/05 00:58:01;;;;;;;33.60;23.63;;;8.20;98.10;;;;;;5095617;28;20694;-68
2021/03/05 01:00:26;;;;;;;42.23;25.20;;;8.30;98.00;;;;;;5095339;28;20207;-69
2021/03/05 01:02:52;;;;;;;37.00;24.03;;;8.20;98.10;;;;;;5095576;28;20173;-68
2021/03/05 01:05:18;;;;;;;39.77;25.10;;;8.10;98.30;;;;;;5095195;28;20227;-69
2021/03/05 01:07:44;;;;;;;42.30;25.73;;;8.10;98.40;;;;;;5093975;28;20555;-67
2021/03/05 01:10:11;;;;;;;40.50;24.77;;;8.00;98.60;;;;;;5095138;28;20217;-70
2021/03/05 01:12:36;;;;;;;37.90;24.70;;;8.10;98.50;;;;;;5095239;28;20180;-68
2021/03/05 01:15:05;;;;;;;34.60;22.73;;;8.00;98.70;;;;;;5093813;28;20188;-69
2021/03/05 01:17:31;;;;;;;33.92;24.33;;;8.00;98.60;;;;;;5095196;28;20626;-68
2021/03/05 01:19:57;;;;;;;35.83;22.73;;;8.10;98.60;;;;;;5094915;28;20220;-69
2021/03/05 01:22:22;;;;;;;36.03;23.40;;;8.20;98.50;;;;;;5094973;28;20172;-68
2021/03/05 01:24:48;;;;;;;34.07;23.00;;;8.10;98.40;;;;;;5093902;28;20212;-68
2021/03/05 01:27:14;;;;;;;35.57;25.17;;;8.10;98.50;;;;;;5093638;28;20534;-68
2021/03/05 01:29:39;;;;;;;37.22;23.40;;;8.20;98.50;;;;;;5093444;28;20200;-68
2021/03/05 01:32:05;;;;;;;33.03;23.60;;;8.20;98.60;;;;;;5094888;28;20575;-68
2021/03/05 01:34:31;;;;;;;38.58;24.35;;;8.20;98.40;;;;;;5094691;28;20569;-68
2021/03/05 01:36:57;;;;;;;34.70;22.93;;;8.20;98.50;;;;;;5094746;28;20187;-69
2021/03/05 01:39:23;;;;;;;39.43;24.80;;;8.20;98.20;;;;;;5094607;28;20201;-68
2021/03/05 01:41:48;;;;;;;38.27;25.50;;;8.20;98.30;;;;;;5093143;28;20677;-68
2021/03/05 01:44:15;;;;;;;36.00;23.53;;;8.20;98.30;;;;;;5094588;28;20218;-69
2021/03/05 01:46:41;;;;;;;35.83;22.38;;;8.10;98.60;;;;;;5094470;28;20177;-68
2021/03/05 01:49:07;;;;;;;32.40;23.53;;;8.20;98.60;;;;;;5094433;28;20200;-68
2021/03/05 01:51:35;;;;;;;34.60;22.77;;;8.20;98.40;;;;;;5093085;28;20416;-68
2021/03/05 01:54:00;;;;;;;31.67;21.33;;;8.20;98.40;;;;;;5094400;28;20193;-68
2021/03/05 01:56:47;;;;;;;37.40;24.00;;;8.30;98.30;;;;;;5093058;28;20172;-68
2021/03/05 01:59:16;;;;;;;37.03;22.45;;;8.30;98.00;;;;;;5094246;28;20432;-68
2021/03/05 02:01:42;;;;;;;30.40;21.85;;;8.40;98.00;;;;;;5094099;28;20204;-68
2021/03/05 02:04:12;;;;;;;36.67;22.45;;;8.40;98.00;;;;;;5094025;28;20213;-67
2021/03/05 02:06:38;;;;;;;31.52;22.33;;;8.40;97.90;;;;;;5094201;28;20180;-68
2021/03/05 02:09:06;;;;;;;33.95;22.80;;;8.50;97.60;;;;;;5094168;28;20754;-68
2021/03/05 02:11:32;;;;;;;33.35;22.70;;;8.50;97.70;;;;;;5092747;28;20184;-67
2021/03/05 02:14:00;;;;;;;33.77;21.80;;;8.40;97.70;;;;;;5094052;28;20192;-68
2021/03/05 02:16:53;;;;;;;32.60;21.00;;;8.30;97.90;;;;;;5094027;28;20474;-68
2021/03/05 02:20:03;;;;;;;34.97;22.13;;;8.30;98.10;;;;;;5093898;28;20201;-68
2021/03/05 02:22:50;;;;;;;36.28;21.75;;;8.30;98.20;;;;;;5092758;28;20587;-67
2021/03/05 02:25:40;;;;;;;37.33;22.83;;;8.30;98.20;;;;;;5093847;28;20231;-68
2021/03/05 02:28:34;;;;;;;31.80;21.55;;;8.30;98.20;;;;;;5094196;28;20330;-68
2021/03/05 02:31:13;;;;;;;36.22;23.00;;;8.30;98.20;;;;;;5092513;28;20173;-68
2021/03/05 02:33:45;;;;;;;37.10;23.48;;;8.30;98.20;;;;;;5094174;28;20334;-68
2021/03/05 02:36:16;;;;;;;33.80;22.00;;;8.30;98.40;;;;;;5092444;28;20187;-68
2021/03/05 02:38:49;;;;;;;34.90;22.88;;;8.30;98.60;;;;;;5094191;28;20215;-68
2021/03/05 02:41:15;;;;;;;35.35;23.50;;;8.20;98.80;;;;;;5093605;28;20340;-68
2021/03/05 02:43:43;;;;;;;31.95;22.95;;;8.20;98.80;;;;;;5093473;28;20307;-68
2021/03/05 02:46:10;;;;;;;35.47;23.08;;;8.20;99.10;;;;;;5092371;28;20242;-68
2021/03/05 02:48:45;;;;;;;34.40;23.63;;;8.20;99.00;;;;;;5093985;28;20192;-68
2021/03/05 02:51:13;;;;;;;36.58;22.92;;;8.20;98.90;;;;;;5093864;28;20164;-68
2021/03/05 02:53:41;;;;;;;31.42;23.85;;;8.30;98.90;;;;;;5093980;28;20229;-68
2021/03/05 02:56:20;;;;;;;31.67;21.80;;;8.30;99.00;;;;;;5093647;28;20187;-68
2021/03/05 02:58:50;;;;;;;33.50;23.02;;;8.30;99.00;;;;;;5094080;28;20203;-68
2021/03/05 03:01:19;;;;;;;34.50;23.75;;;8.30;99.30;;;;;;5093664;28;20622;-68
2021/03/05 03:03:44;;;;;;;38.67;23.48;;;8.30;99.50;;;;;;5093869;28;20680;-68
2021/03/05 03:06:14;;;;;;;36.20;22.97;;;8.30;99.50;;;;;;5092299;28;20181;-68
2021/03/05 03:08:41;;;;;;;36.70;23.05;;;8.30;99.60;;;;;;5092341;28;20653;-68
2021/03/05 03:11:07;;;;;;;32.28;21.95;;;8.30;99.80;;;;;;5093417;28;20164;-69
2021/03/05 03:13:36;;;;;;;34.15;22.60;;;8.30;99.90;;;;;;5093825;28;20192;-67
2021/03/05 03:16:03;;;;;;;37.47;24.40;;;8.30;99.90;;;;;;5093525;28;20183;-68
2021/03/05 03:18:32;;;;;;;34.85;23.15;;;8.30;99.90;;;;;;5093834;28;20188;-67
2021/03/05 03:21:00;;;;;;;34.45;23.83;;;8.20;99.90;;;;;;5093659;28;20574;-68
2021/03/05 03:23:26;;;;;;;36.42;24.20;;;8.20;99.90;;;;;;5093628;28;20250;-67
2021/03/05 03:25:53;;;;;;;33.42;22.95;;;8.20;99.90;;;;;;5093389;28;20208;-67
2021/03/05 03:28:19;;;;;;;32.30;22.98;;;8.10;99.90;;;;;;5092113;28;20725;-68
2021/03/05 03:30:45;;;;;;;33.53;24.55;;;8.20;99.90;;;;;;5091986;28;20275;-68
2021/03/05 03:33:11;;;;;;;32.83;23.52;;;8.30;99.90;;;;;;5093681;28;20606;-68
2021/03/05 03:35:37;;;;;;;32.13;23.33;;;8.20;99.90;;;;;;5092015;28;20271;-69
2021/03/05 03:38:03;;;;;;;33.60;21.00;;;8.20;99.90;;;;;;5093481;28;20212;-68
2021/03/05 03:40:29;;;;;;;29.80;21.45;;;8.30;99.90;;;;;;5091890;28;20267;-68
2021/03/05 03:42:54;;;;;;;31.37;21.37;;;8.40;99.90;;;;;;5093483;28;20317;-68
2021/03/05 03:45:22;;;;;;;32.83;21.90;;;8.40;99.90;;;;;;5093066;28;20548;-68
2021/03/05 03:47:49;;;;;;;28.88;20.35;;;8.40;99.70;;;;;;5094047;28;20216;-68
2021/03/05 03:50:23;;;;;;;24.83;19.85;;;8.50;99.30;;;;;;5095528;28;20696;-69
2021/03/05 03:53:03;;;;;;;27.50;18.50;;;8.60;98.30;;;;;;5096939;28;20183;-67
2021/03/05 03:55:29;;;;;;;28.55;19.40;;;8.70;98.10;;;;;;5096706;28;20179;-68
2021/03/05 03:57:56;;;;;;;29.47;19.63;;;8.70;97.70;;;;;;5095337;28;20197;-69
2021/03/05 04:00:24;;;;;;;26.45;18.25;;;8.70;97.30;;;;;;5095274;28;20191;-68
2021/03/05 04:02:52;;;;;;;27.63;19.02;;;8.80;96.90;;;;;;5096689;28;20186;-68
2021/03/05 04:05:24;;;;;;;28.20;20.98;;;8.90;96.50;;;;;;5096441;28;20261;-68
2021/03/05 04:07:51;;;;;;;27.17;19.25;;;8.90;96.20;;;;;;5096645;28;20172;-68
2021/03/05 04:10:17;;;;;;;26.85;17.70;;;8.90;96.00;;;;;;5096321;28;20263;-68
2021/03/05 04:12:45;;;;;;;22.38;16.65;;;9.00;95.50;;;;;;5096442;28;20617;-68
2021/03/05 04:15:11;;;;;;;27.10;19.63;;;9.00;95.40;;;;;;5096259;28;20632;-68
2021/03/05 04:17:37;;;;;;;25.58;17.30;;;9.00;95.10;;;;;;5094903;28;20180;-68
2021/03/05 04:20:04;;;;;;;27.87;18.70;;;9.00;95.30;;;;;;5096134;28;20187;-68
2021/03/05 04:22:32;;;;;;;29.85;18.35;;;9.10;94.90;;;;;;5096229;28;20409;-68
2021/03/05 04:24:58;;;;;;;29.10;18.70;;;9.10;94.70;;;;;;5095956;28;20232;-68
2021/03/05 04:27:24;;;;;;;26.95;18.30;;;9.20;94.20;;;;;;5096166;28;20180;-68
2021/03/05 04:29:50;;;;;;;30.47;18.10;;;9.20;94.20;;;;;;5095862;28;20555;-68
2021/03/05 04:32:15;;;;;;;26.07;17.90;;;9.20;94.10;;;;;;5096071;28;20530;-68
2021/03/05 04:34:41;;;;;;;23.67;16.30;;;9.30;93.80;;;;;;5095810;28;20661;-68
2021/03/05 04:37:07;;;;;;;21.23;16.50;;;9.30;93.90;;;;;;5095958;28;20173;-68
2021/03/05 04:39:32;;;;;;;26.77;18.20;;;9.20;93.80;;;;;;5094433;28;20208;-68
2021/03/05 04:41:58;;;;;;;23.50;17.53;;;9.30;93.70;;;;;;5094351;28;20232;-68
2021/03/05 04:44:24;;;;;;;28.10;17.70;;;9.50;93.50;;;;;;5095643;28;20254;-68
2021/03/05 04:46:50;;;;;;;26.03;17.17;;;9.40;93.60;;;;;;5095647;28;20181;-68
2021/03/05 04:49:15;;;;;;;30.50;18.77;;;9.40;93.40;;;;;;5094229;28;20257;-68
2021/03/05 04:51:41;;;;;;;23.27;15.60;;;9.40;93.40;;;;;;5095479;28;20358;-68
2021/03/05 04:54:07;;;;;;;24.93;17.57;;;9.40;93.30;;;;;;5094154;28;20197;-68
2021/03/05 04:56:35;;;;;;;25.00;16.93;;;9.40;93.30;;;;;;5095416;28;20247;-68
2021/03/05 04:59:00;;;;;;;22.02;16.08;;;9.40;93.40;;;;;;5094125;28;20684;-68
2021/03/05 05:01:26;;;;;;;21.03;16.73;;;9.40;93.40;;;;;;5095321;28;20164;-68
2021/03/05 05:03:52;;;;;;;25.53;17.40;;;9.40;93.40;;;;;;5095459;28;20265;-68
2021/03/05 05:06:17;;;;;;;23.23;15.87;;;9.50;93.20;;;;;;5095287;28;20244;-69
2021/03/05 05:08:43;;;;;;;23.10;17.40;;;9.40;93.20;;;;;;5095059;28;20194;-68
2021/03/05 05:11:08;;;;;;;23.67;16.20;;;9.50;92.90;;;;;;5095209;28;20168;-68
2021/03/05 05:13:34;;;;;;;25.60;17.73;;;9.40;93.10;;;;;;5092869;28;20295;-68
2021/03/05 05:16:00;;;;;;;28.30;18.50;;;9.30;93.40;;;;;;5065672;28;20198;-68
2021/03/05 05:18:25;;;;;;;26.03;18.07;;;9.30;93.20;;;;;;5059737;28;20291;-68
2021/03/05 05:20:51;;;;;;;24.90;16.43;;;9.20;93.10;;;;;;5061990;28;20209;-69
2021/03/05 05:23:17;;;;;;;29.60;18.27;;;9.10;93.10;;;;;;5069175;28;20542;-68
2021/03/05 05:25:42;;;;;;;26.70;17.50;;;9.10;93.30;;;;;;5074528;28;20217;-68
2021/03/05 05:28:08;;;;;;;25.90;18.33;;;9.10;93.30;;;;;;5074974;28;20197;-68
2021/03/05 05:30:33;;;;;;;29.63;21.73;;;9.20;93.20;;;;;;5074551;28;20218;-67
2021/03/05 05:32:59;;;;;;;29.20;20.60;;;9.20;93.20;;;;;;5074697;28;20219;-68
2021/03/05 05:35:25;;;;;;;87.17;61.83;;;9.20;93.20;;;;;;5074485;28;20181;-67
2021/03/05 05:37:51;;;;;;;40.93;33.30;;;9.20;93.00;;;;;;5074503;28;20214;-67
2021/03/05 05:40:17;;;;;;;34.07;30.47;;;9.20;93.00;;;;;;5074340;28;20180;-68
2021/03/05 05:42:42;;;;;;;29.10;19.90;;;9.30;93.30;;;;;;5074273;28;20330;-67
2021/03/05 05:45:09;;;;;;;27.83;20.30;;;9.30;92.80;;;;;;5074220;28;20284;-68
2021/03/05 05:47:38;;;;;;;26.52;17.23;;;9.30;92.90;;;;;;5074282;28;20181;-68
2021/03/05 05:50:06;;;;;;;22.45;16.20;;;9.20;93.10;;;;;;5074164;28;20184;-68
2021/03/05 05:52:33;;;;;;;28.98;22.05;;;9.40;93.00;;;;;;5074165;28;20173;-67
2021/03/05 05:55:04;;;;;;;31.10;22.58;;;9.30;93.00;;;;;;5074082;28;20175;-68
2021/03/05 05:57:32;;;;;;;34.05;23.15;;;9.40;93.00;;;;;;5074302;28;20173;-67
2021/03/05 05:59:59;;;;;;;27.88;19.58;;;9.50;92.70;;;;;;5073812;28;20197;-67
2021/03/05 06:02:26;;;;;;;23.63;17.88;;;9.40;92.80;;;;;;5074154;28;20268;-68
2021/03/05 06:04:55;;;;;;;27.00;21.30;;;9.20;92.90;;;;;;5073833;28;20554;-67
2021/03/05 06:07:22;;;;;;;22.75;17.83;;;9.20;93.10;;;;;;5068294;28;20188;-67
2021/03/05 06:09:52;;;;;;;26.70;20.58;;;9.00;93.70;;;;;;5071447;28;20210;-67
2021/03/05 06:12:18;;;;;;;27.50;20.15;;;9.10;93.40;;;;;;5093227;28;20200;-67
2021/03/05 06:14:45;;;;;;;25.02;18.30;;;9.10;93.60;;;;;;5092536;28;20208;-67
2021/03/05 06:17:12;;;;;;;23.88;18.60;;;9.10;93.90;;;;;;5092760;28;20204;-67
2021/03/05 06:19:38;;;;;;;29.52;19.95;;;9.10;93.90;;;;;;5090515;28;20854;-67
2021/03/05 06:22:21;;;;;;;34.55;20.65;;;9.20;93.70;;;;;;5086674;28;20184;-68
2021/03/05 06:24:47;;;;;;;25.17;19.45;;;9.30;93.70;;;;;;5084806;28;20336;-67
2021/03/05 06:27:13;;;;;;;28.35;18.67;;;9.40;93.60;;;;;;5084628;28;20177;-67
2021/03/05 06:29:43;;;;;;;24.95;18.48;;;9.30;93.70;;;;;;5090810;28;20197;-66
2021/03/05 06:32:11;;;;;;;28.63;20.42;;;9.10;93.70;;;;;;5089275;28;20191;-66
2021/03/05 06:34:53;;;;;;;23.33;18.65;;;9.10;94.00;;;;;;5092181;28;20284;-67
2021/03/05 06:37:21;;;;;;;28.67;18.58;;;9.10;94.10;;;;;;5084708;28;20184;-67
2021/03/05 06:40:05;;;;;;;32.42;25.83;;;9.10;94.40;;;;;;5084566;28;20304;-67
2021/03/05 06:42:50;;;;;;;27.50;21.02;;;9.20;94.20;;;;;;5084412;28;20259;-67
2021/03/05 06:45:17;;;;;;;32.08;22.45;;;9.10;94.10;;;;;;5090562;28;20212;-67
2021/03/05 06:48:02;;;;;;;27.02;20.48;;;9.20;94.00;;;;;;5092660;28;20263;-67
2021/03/05 06:50:31;;;;;;;25.85;19.25;;;9.20;94.20;;;;;;5092093;28;20692;-67
2021/03/05 06:52:56;;;;;;;27.05;18.88;;;9.30;94.40;;;;;;5091902;28;20208;-67
2021/03/05 06:55:22;;;;;;;27.00;18.93;;;9.40;94.10;;;;;;5092042;28;20723;-68
2021/03/05 06:57:48;;;;;;;28.47;19.27;;;9.40;94.20;;;;;;5093423;28;20633;-67
2021/03/05 07:00:23;;;;;;;56.63;48.10;;;9.40;94.30;;;;;;5086737;28;20184;-67
2021/03/05 07:02:49;;;;;;;26.23;20.92;;;9.40;94.50;;;;;;5092205;28;20594;-67
2021/03/05 07:05:17;;;;;;;27.17;20.20;;;9.50;94.50;;;;;;5086306;28;20209;-67
2021/03/05 07:07:44;;;;;;;34.85;25.55;;;9.90;94.20;;;;;;5091774;28;20188;-67
2021/03/05 07:10:13;;;;;;;31.30;23.73;;;10.10;93.90;;;;;;5090882;28;20176;-67
2021/03/05 07:12:59;;;;;;;28.27;20.80;;;10.20;93.80;;;;;;5090944;28;20188;-67
2021/03/05 07:15:25;;;;;;;26.45;19.73;;;10.50;93.50;;;;;;5088492;28;20231;-66
2021/03/05 07:17:50;;;;;;;32.30;25.73;;;10.40;93.50;;;;;;5092315;28;20224;-67
2021/03/05 07:20:16;;;;;;;30.10;24.00;;;10.40;94.00;;;;;;5078623;28;20722;-68
2021/03/05 07:22:46;;;;;;;25.00;21.70;;;10.60;93.30;;;;;;5092549;28;20188;-66
2021/03/05 07:25:16;;;;;;;27.15;22.35;;;10.70;93.30;;;;;;5093157;28;20567;-68
2021/03/05 07:27:44;;;;;;;30.55;25.80;;;10.50;93.40;;;;;;5089728;28;20608;-67
2021/03/05 07:30:14;;;;;;;32.63;25.70;;;10.60;93.50;;;;;;5094081;28;20188;-67
2021/03/05 07:32:48;;;;;;;25.60;21.95;;;10.90;93.40;;;;;;5093703;28;20585;-67
2021/03/05 07:35:22;;;;;;;29.35;24.40;;;11.10;93.40;;;;;;5093222;28;20188;-65
2021/03/05 07:37:58;;;;;;;28.65;20.83;;;10.90;93.30;;;;;;5092154;28;20167;-66
2021/03/05 07:40:23;;;;;;;27.35;20.10;;;11.00;93.70;;;;;;5080352;28;20196;-67
2021/03/05 07:42:50;;;;;;;24.93;22.23;;;11.10;93.60;;;;;;5091660;28;20349;-67
2021/03/05 07:45:16;;;;;;;26.63;19.90;;;11.20;93.60;;;;;;5092300;28;20226;-69
2021/03/05 07:47:45;;;;;;;32.97;22.98;;;11.30;93.80;;;;;;5093723;28;20188;-66
2021/03/05 07:50:13;;;;;;;28.58;19.67;;;11.50;93.40;;;;;;5094946;28;20180;-69
2021/03/05 07:52:40;;;;;;;25.92;20.67;;;11.50;93.70;;;;;;5075987;28;20181;-68
2021/03/05 07:55:07;;;;;;;29.25;21.48;;;11.50;93.40;;;;;;5074539;28;20185;-66
2021/03/05 07:57:32;;;;;;;29.13;22.08;;;11.70;93.60;;;;;;5079488;28;20224;-67
2021/03/05 08:00:02;;;;;;;29.23;20.63;;;12.00;93.40;;;;;;5071095;28;20200;-68
2021/03/05 08:03:00;;;;;;;29.08;20.85;;;12.20;93.30;;;;;;5078126;28;20181;-68
2021/03/05 08:05:38;;;;;;;30.38;21.95;;;12.00;93.00;;;;;;5086083;28;20300;-66
2021/03/05 08:08:33;;;;;;;33.42;21.75;;;11.90;93.00;;;;;;5069236;28;20197;-66
2021/03/05 08:11:03;;;;;;;31.00;21.70;;;12.20;93.00;;;;;;5071722;28;20280;-69
2021/03/05 08:16:25;;;;;;;32.17;21.60;;;12.50;92.60;;;;;;5078400;28;20433;-67
2021/03/05 08:18:52;;;;;;;29.27;20.97;;;12.70;92.30;;;;;;5076205;28;20461;-68
2021/03/05 08:21:18;;;;;;;31.80;20.50;;;12.80;91.90;;;;;;5073808;28;20422;-70
2021/03/05 08:24:21;;;;;;;31.37;24.17;;;12.70;91.70;;;;;;5065171;28;20527;-68
2021/03/05 08:27:00;;;;;;;38.07;24.00;;;12.40;91.90;;;;;;5079361;28;20534;-67
2021/03/05 08:29:49;;;;;;;34.20;26.50;;;12.60;91.90;;;;;;5078382;28;20441;-68
2021/03/05 08:32:33;;;;;;;27.90;21.20;;;12.70;91.70;;;;;;5079847;28;20828;-68
2021/03/05 08:35:02;;;;;;;31.07;22.47;;;13.00;91.40;;;;;;5084624;28;20481;-70
2021/03/05 08:37:28;;;;;;;28.77;21.87;;;13.00;91.10;;;;;;5082784;28;20440;-69
2021/03/05 08:40:14;;;;;;;30.33;22.03;;;12.90;91.00;;;;;;5082593;28;21102;-69
2021/03/05 08:42:41;;;;;;;28.37;21.67;;;12.70;91.90;;;;;;5083118;28;20476;-69
2021/03/05 08:45:19;;;;;;;29.10;22.43;;;12.60;91.40;;;;;;5082948;28;20501;-69
2021/03/05 08:48:02;;;;;;;31.83;21.87;;;12.80;91.40;;;;;;5079485;28;20464;-68
2021/03/05 08:50:36;;;;;;;28.73;20.93;;;13.20;91.70;;;;;;5078823;28;20474;-68
2021/03/05 08:53:06;;;;;;;34.57;21.00;;;13.50;90.70;;;;;;5071125;28;21030;-70
2021/03/05 08:55:37;;;;;;;34.00;23.33;;;13.70;90.50;;;;;;5070436;28;20433;-69
2021/03/05 08:58:03;;;;;;;34.83;21.20;;;14.00;89.90;;;;;;5075768;28;20438;-69
2021/03/05 09:00:31;;;;;;;29.93;23.23;;;13.90;89.30;;;;;;5072766;28;20409;-69
2021/03/05 09:03:04;;;;;;;30.37;22.77;;;14.20;88.80;;;;;;5085742;28;20544;-67
2021/03/05 09:05:34;;;;;;;36.07;23.73;;;14.10;88.40;;;;;;5079653;28;20469;-67
2021/03/05 09:08:01;;;;;;;32.77;23.50;;;14.50;89.30;;;;;;5086392;28;20441;-67
2021/03/05 09:10:46;;;;;;;31.13;23.30;;;14.40;87.30;;;;;;5075729;28;20421;-67
2021/03/05 09:13:14;;;;;;;27.60;21.57;;;14.60;87.00;;;;;;5084438;28;20949;-67
2021/03/05 09:15:47;;;;;;;32.80;22.13;;;14.40;86.60;;;;;;5093680;28;20875;-68
2021/03/05 09:18:19;;;;;;;49.53;38.33;;;14.30;86.40;;;;;;5092761;28;20459;-67
2021/03/05 09:21:03;;;;;;;35.90;24.97;;;14.20;88.00;;;;;;5079050;28;20587;-66
2021/03/05 09:23:37;;;;;;;31.20;23.73;;;14.10;87.50;;;;;;5077421;28;21046;-65
2021/03/05 09:26:07;;;;;;;30.23;22.27;;;14.10;87.50;;;;;;5082500;28;20452;-68
2021/03/05 09:28:39;;;;;;;29.50;22.37;;;14.00;87.80;;;;;;5067075;28;20454;-66
2021/03/05 09:31:06;;;;;;;34.67;22.60;;;14.20;88.00;;;;;;5084627;28;20436;-66
2021/03/05 09:33:34;;;;;;;33.10;22.67;;;13.90;87.00;;;;;;5082717;28;20808;-66
2021/03/05 09:36:20;;;;;;;29.27;21.83;;;13.70;88.30;;;;;;5077446;28;20434;-67
2021/03/05 09:38:53;;;;;;;30.17;21.33;;;13.60;88.40;;;;;;5086351;28;20452;-66
2021/03/05 09:41:22;;;;;;;38.67;28.50;;;13.50;89.00;;;;;;5080640;28;20456;-67
2021/03/05 09:44:00;;;;;;;39.17;27.40;;;13.70;88.10;;;;;;5093526;28;20548;-65
2021/03/05 09:46:37;;;;;;;32.53;22.57;;;14.10;87.90;;;;;;5072211;28;20435;-65
2021/03/05 09:49:21;;;;;;;36.27;23.17;;;13.80;87.30;;;;;;5076663;28;20802;-65
2021/03/05 09:51:47;;;;;;;33.40;21.70;;;13.80;88.10;;;;;;5074807;28;20534;-66
2021/03/05 09:54:13;;;;;;;40.63;23.30;;;13.70;88.40;;;;;;5083408;28;20544;-66
2021/03/05 09:56:44;;;;;;;26.67;20.10;;;13.60;89.30;;;;;;5092294;28;20551;-66
2021/03/05 09:59:09;;;;;;;28.23;19.93;;;13.50;89.00;;;;;;5088945;28;20203;-67
2021/03/05 10:01:40;;;;;;;25.20;20.60;;;13.70;88.40;;;;;;5090514;28;20420;-67
2021/03/05 10:04:05;;;;;;;30.50;21.30;;;13.50;89.00;;;;;;5082798;28;20216;-66
2021/03/05 10:06:32;;;;;;;31.87;21.20;;;13.40;90.10;;;;;;5080992;28;20409;-66
2021/03/05 10:09:09;;;;;;;31.03;21.17;;;13.50;91.00;;;;;;5079131;28;20287;-67
2021/03/05 10:11:40;;;;;;;29.90;20.37;;;13.40;91.30;;;;;;5084168;28;20452;-67
2021/03/05 10:14:35;;;;;;;31.58;22.00;;;13.60;92.90;;;;;;5087726;28;20449;-67
2021/03/05 10:17:12;;;;;;;28.97;20.43;;;12.80;95.40;;;;;;5077675;28;20193;-67
2021/03/05 10:19:38;;;;;;;28.23;19.90;;;12.60;97.00;;;;;;5090087;28;20888;-68
2021/03/05 10:22:06;;;;;;;31.00;21.03;;;12.60;99.20;;;;;;5077199;28;20509;-68
2021/03/05 10:24:32;;;;;;;26.60;19.70;;;12.50;99.90;;;;;;5085424;28;20484;-66
2021/03/05 10:27:11;;;;;;;40.13;20.03;;;12.40;99.90;;;;;;5090869;28;20425;-67
2021/03/05 10:29:43;;;;;;;26.60;21.50;;;12.30;99.90;;;;;;5082695;28;20204;-66
2021/03/05 10:32:28;;;;;;;30.83;22.30;;;12.20;99.90;;;;;;5083240;28;20453;-68
2021/03/05 10:35:07;;;;;;;30.23;22.67;;;12.10;99.90;;;;;;5079563;28;20476;-67
2021/03/05 10:37:33;;;;;;;30.80;21.75;;;12.20;99.90;;;;;;5083439;28;20434;-70
2021/03/05 10:40:00;;;;;;;31.53;21.17;;;12.10;99.90;;;;;;5089638;28;20188;-69
2021/03/05 10:42:28;;;;;;;33.13;23.48;;;12.10;99.90;;;;;;5079646;28;20432;-74
2021/03/05 10:44:54;;;;;;;28.05;22.02;;;12.00;99.90;;;;;;5083677;28;20220;-68
2021/03/05 10:47:21;;;;;;;31.63;20.92;;;11.80;99.90;;;;;;5082089;28;20180;-69
2021/03/05 10:49:47;;;;;;;30.05;21.38;;;11.80;99.90;;;;;;5082512;28;20316;-66
2021/03/05 10:52:15;;;;;;;31.20;22.20;;;11.80;99.90;;;;;;5089595;28;20669;-68
2021/03/05 10:54:43;;;;;;;28.23;21.40;;;11.80;99.90;;;;;;5082478;28;20490;-68
2021/03/05 10:57:11;;;;;;;30.05;22.85;;;11.90;99.90;;;;;;5094563;28;20195;-67
2021/03/05 10:59:36;;;;;;;27.60;21.75;;;11.80;99.90;;;;;;5089457;28;20562;-66
2021/03/05 11:02:02;;;;;;;26.87;20.40;;;11.80;99.90;;;;;;5093042;28;20183;-68
2021/03/05 11:04:28;;;;;;;32.10;22.50;;;11.70;99.90;;;;;;5073428;28;20252;-69
2021/03/05 11:06:54;;;;;;;30.30;22.00;;;11.70;99.90;;;;;;5080032;28;20180;-67
2021/03/05 11:09:24;;;;;;;27.80;19.90;;;11.60;99.90;;;;;;5081631;28;20500;-68
2021/03/05 11:11:50;;;;;;;30.75;21.23;;;11.70;99.90;;;;;;5086619;28;20467;-67
2021/03/05 11:14:16;;;;;;;26.90;18.70;;;11.70;99.90;;;;;;5082870;28;20227;-69
2021/03/05 11:16:42;;;;;;;23.80;19.08;;;11.70;99.90;;;;;;5076357;28;20603;-69
2021/03/05 11:19:08;;;;;;;31.07;21.60;;;11.90;99.90;;;;;;5078672;28;20197;-68
2021/03/05 11:21:35;;;;;;;37.15;24.67;;;12.10;99.90;;;;;;5092780;28;20470;-69
2021/03/05 11:24:01;;;;;;;51.03;32.88;;;13.10;99.90;;;;;;5078194;28;20311;-68
2021/03/05 11:26:26;;;;;;;38.37;25.10;;;13.20;99.90;;;;;;5087356;28;20269;-72
2021/03/05 11:28:53;;;;;;;67.17;45.27;;;12.60;99.90;;;;;;5077988;28;20544;-68
2021/03/05 11:31:20;;;;;;;46.60;35.33;;;12.30;99.90;;;;;;5083232;28;20853;-66
2021/03/05 11:33:46;;;;;;;27.58;22.67;;;12.00;99.90;;;;;;5080720;28;20658;-67
2021/03/05 11:36:12;;;;;;;29.85;20.90;;;12.00;99.90;;;;;;5093278;28;20192;-69
2021/03/05 11:38:40;;;;;;;25.10;19.33;;;11.90;99.90;;;;;;5096271;28;20201;-69
2021/03/05 11:41:05;;;;;;;25.05;19.30;;;12.00;99.90;;;;;;5095245;28;20176;-69
2021/03/05 11:43:32;;;;;;;25.60;19.40;;;11.90;99.90;;;;;;5090334;28;20251;-66
2021/03/05 11:45:58;;;;;;;31.70;21.10;;;12.10;99.90;;;;;;5085247;28;20220;-67
2021/03/05 11:48:24;;;;;;;29.90;19.27;;;12.10;99.90;;;;;;5089899;28;20224;-67
2021/03/05 11:50:49;;;;;;;29.73;17.77;;;12.80;99.90;;;;;;5085304;28;20341;-68
2021/03/05 11:53:16;;;;;;;27.57;18.80;;;13.40;99.90;;;;;;5090525;28;20433;-67
2021/03/05 11:55:42;;;;;;;30.85;17.98;;;13.70;99.90;;;;;;5081751;28;20243;-67
2021/03/05 11:58:08;;;;;;;28.23;18.77;;;14.00;99.90;;;;;;5079437;28;20196;-65
2021/03/05 12:00:33;;;;;;;25.23;17.60;;;13.70;99.90;;;;;;5084413;28;20185;-67
2021/03/05 12:02:59;;;;;;;25.73;18.23;;;13.00;99.90;;;;;;5091589;28;20200;-67
2021/03/05 12:05:25;;;;;;;26.83;16.57;;;12.90;99.90;;;;;;5091130;28;20208;-67
2021/03/05 12:07:50;;;;;;;25.63;16.90;;;13.40;99.90;;;;;;5082258;28;21026;-66
2021/03/05 12:10:16;;;;;;;24.30;18.37;;;14.00;99.90;;;;;;5081142;28;20200;-67
2021/03/05 12:12:42;;;;;;;20.33;16.20;;;13.40;99.90;;;;;;5084238;28;20189;-66
2021/03/05 12:15:09;;;;;;;20.40;16.80;;;13.10;99.90;;;;;;5080165;28;20432;-65
2021/03/05 12:17:34;;;;;;;24.25;17.77;;;12.90;99.90;;;;;;5077466;28;20180;-66
2021/03/05 12:20:00;;;;;;;29.00;17.93;;;12.90;99.90;;;;;;5081382;28;20187;-67
2021/03/05 12:22:26;;;;;;;25.30;15.55;;;12.80;99.90;;;;;;5080745;28;20184;-66
2021/03/05 12:24:52;;;;;;;26.10;17.60;;;13.20;99.90;;;;;;5082657;28;20282;-66
2021/03/05 12:27:18;;;;;;;21.80;15.20;;;13.80;99.90;;;;;;5089754;28;20584;-66
2021/03/05 12:29:43;;;;;;;25.83;15.57;;;13.30;99.90;;;;;;5085571;28;20910;-68
2021/03/05 12:32:09;;;;;;;23.57;16.30;;;13.20;99.90;;;;;;5082966;28;20422;-67
2021/03/05 12:34:35;;;;;;;21.50;15.13;;;13.50;99.90;;;;;;5085196;28;20205;-68
2021/03/05 12:37:01;;;;;;;24.83;16.43;;;13.80;99.90;;;;;;5092648;28;20242;-65
2021/03/05 12:39:28;;;;;;;20.35;15.93;;;13.90;99.90;;;;;;5092044;28;20560;-66
2021/03/05 12:41:53;;;;;;;23.88;15.65;;;14.10;99.90;;;;;;5084062;28;20239;-68
2021/03/05 12:44:19;;;;;;;24.40;15.60;;;14.40;99.90;;;;;;5085924;28;20716;-66
2021/03/05 12:46:45;;;;;;;24.83;15.10;;;14.00;99.90;;;;;;5080424;28;20529;-68